sensor_id;sensor_type;location;lat;lon;timestamp;temperature;humidity
17296;DHT22;8766;51.480;6.872;2023-03-23T00:00:59;13.60;67.80
17296;DHT22;8766;51.480;6.872;2023-03-23T00:03:29;13.60;67.80
17296;DHT22;8766;51.480;6.872;2023-03-23T00:05:57;13.60;67.80
17296;DHT22;8766;51.480;6.872;2023-03-23T00:08:31;13.60;67.80
17296;DHT22;8766;51.480;6.872;2023-03-23T00:10:57;13.60;67.70
17296;DHT22;8766;51.480;6.872;2023-03-23T00:13:28;13.60;67.80
17296;DHT22;8766;51.480;6.872;2023-03-23T00:15:55;13.60;67.80
17296;DHT22;8766;51.480;6.872;2023-03-23T00:18:24;13.60;67.80
17296;DHT22;8766;51.480;6.872;2023-03-23T00:20:54;13.60;67.90
17296;DHT22;8766;51.480;6.872;2023-03-23T00:23:22;13.60;67.80
17296;DHT22;8766;51.480;6.872;2023-03-23T00:25:51;13.60;67.80
17296;DHT22;8766;51.480;6.872;2023-03-23T00:28:22;13.60;68.50
17296;DHT22;8766;51.480;6.872;2023-03-23T00:30:55;13.60;67.80
17296;DHT22;8766;51.480;6.872;2023-03-23T00:33:23;13.60;67.80
17296;DHT22;8766;51.480;6.872;2023-03-23T00:35:53;13.60;67.80
17296;DHT22;8766;51.480;6.872;2023-03-23T00:38:21;13.60;67.80
17296;DHT22;8766;51.480;6.872;2023-03-23T00:40:49;13.60;67.80
17296;DHT22;8766;51.480;6.872;2023-03-23T00:43:18;13.60;67.90
17296;DHT22;8766;51.480;6.872;2023-03-23T00:45:45;13.60;67.80
17296;DHT22;8766;51.480;6.872;2023-03-23T00:48:18;13.80;68.00
17296;DHT22;8766;51.480;6.872;2023-03-23T00:50:45;13.60;67.90
17296;DHT22;8766;51.480;6.872;2023-03-23T00:53:13;13.60;67.90
17296;DHT22;8766;51.480;6.872;2023-03-23T00:55:40;13.60;67.90
17296;DHT22;8766;51.480;6.872;2023-03-23T00:58:08;13.60;67.90
17296;DHT22;8766;51.480;6.872;2023-03-23T01:00:35;13.60;67.90
17296;DHT22;8766;51.480;6.872;2023-03-23T01:03:02;13.60;67.90
17296;DHT22;8766;51.480;6.872;2023-03-23T01:05:33;13.60;67.90
17296;DHT22;8766;51.480;6.872;2023-03-23T01:08:01;13.60;67.80
17296;DHT22;8766;51.480;6.872;2023-03-23T01:10:29;13.60;67.80
17296;DHT22;8766;51.480;6.872;2023-03-23T01:12:58;13.60;67.90
17296;DHT22;8766;51.480;6.872;2023-03-23T01:15:27;13.60;67.90
17296;DHT22;8766;51.480;6.872;2023-03-23T01:17:54;13.60;67.80
17296;DHT22;8766;51.480;6.872;2023-03-23T01:20:22;13.70;67.90
17296;DHT22;8766;51.480;6.872;2023-03-23T01:22:49;13.70;67.90
17296;DHT22;8766;51.480;6.872;2023-03-23T01:25:18;13.70;67.80
17296;DHT22;8766;51.480;6.872;2023-03-23T01:27:47;13.60;67.80
17296;DHT22;8766;51.480;6.872;2023-03-23T01:30:14;13.70;67.90
17296;DHT22;8766;51.480;6.872;2023-03-23T01:32:41;13.60;67.80
17296;DHT22;8766;51.480;6.872;2023-03-23T01:35:08;13.60;67.80
17296;DHT22;8766;51.480;6.872;2023-03-23T01:37:35;13.70;67.80
17296;DHT22;8766;51.480;6.872;2023-03-23T01:40:02;13.70;67.80
17296;DHT22;8766;51.480;6.872;2023-03-23T01:42:32;13.70;67.80
17296;DHT22;8766;51.480;6.872;2023-03-23T01:45:24;13.70;67.80
17296;DHT22;8766;51.480;6.872;2023-03-23T01:47:55;13.70;67.80
17296;DHT22;8766;51.480;6.872;2023-03-23T01:50:24;13.70;67.80
17296;DHT22;8766;51.480;6.872;2023-03-23T01:52:53;13.70;67.80
17296;DHT22;8766;51.480;6.872;2023-03-23T01:55:25;13.70;67.80
17296;DHT22;8766;51.480;6.872;2023-03-23T01:57:54;13.70;67.80
17296;DHT22;8766;51.480;6.872;2023-03-23T02:00:24;13.70;67.80
17296;DHT22;8766;51.480;6.872;2023-03-23T02:02:52;13.70;67.80
17296;DHT22;8766;51.480;6.872;2023-03-23T02:05:26;13.70;67.80
17296;DHT22;8766;51.480;6.872;2023-03-23T02:07:57;13.70;67.80
17296;DHT22;8766;51.480;6.872;2023-03-23T02:10:29;13.80;67.80
17296;DHT22;8766;51.480;6.872;2023-03-23T02:12:57;13.80;67.70
17296;DHT22;8766;51.480;6.872;2023-03-23T02:15:28;13.80;67.60
17296;DHT22;8766;51.480;6.872;2023-03-23T02:18:03;13.80;67.60
17296;DHT22;8766;51.480;6.872;2023-03-23T02:20:44;13.80;68.30
17296;DHT22;8766;51.480;6.872;2023-03-23T02:23:46;13.80;67.60
17296;DHT22;8766;51.480;6.872;2023-03-23T02:26:29;13.80;67.60
17296;DHT22;8766;51.480;6.872;2023-03-23T02:29:11;13.80;67.60
17296;DHT22;8766;51.480;6.872;2023-03-23T02:31:53;13.80;67.60
17296;DHT22;8766;51.480;6.872;2023-03-23T02:34:27;13.70;67.70
17296;DHT22;8766;51.480;6.872;2023-03-23T02:36:58;13.70;67.80
17296;DHT22;8766;51.480;6.872;2023-03-23T02:39:29;13.70;67.80
17296;DHT22;8766;51.480;6.872;2023-03-23T02:42:01;13.70;67.90
17296;DHT22;8766;51.480;6.872;2023-03-23T02:44:30;13.70;68.00
17296;DHT22;8766;51.480;6.872;2023-03-23T02:47:00;13.60;68.00
17296;DHT22;8766;51.480;6.872;2023-03-23T02:49:32;13.60;68.00
17296;DHT22;8766;51.480;6.872;2023-03-23T02:52:03;13.60;68.10
17296;DHT22;8766;51.480;6.872;2023-03-23T02:54:31;13.60;68.20
17296;DHT22;8766;51.480;6.872;2023-03-23T02:56:59;13.50;68.20
17296;DHT22;8766;51.480;6.872;2023-03-23T02:59:27;13.50;68.20
17296;DHT22;8766;51.480;6.872;2023-03-23T03:02:03;13.50;68.30
17296;DHT22;8766;51.480;6.872;2023-03-23T03:04:34;13.50;68.30
17296;DHT22;8766;51.480;6.872;2023-03-23T03:07:23;13.50;68.30
17296;DHT22;8766;51.480;6.872;2023-03-23T03:09:57;13.50;68.40
17296;DHT22;8766;51.480;6.872;2023-03-23T03:12:33;13.50;68.40
17296;DHT22;8766;51.480;6.872;2023-03-23T03:15:09;13.50;68.40
17296;DHT22;8766;51.480;6.872;2023-03-23T03:17:41;13.50;68.50
17296;DHT22;8766;51.480;6.872;2023-03-23T03:20:12;13.50;68.50
17296;DHT22;8766;51.480;6.872;2023-03-23T03:22:42;13.50;68.40
17296;DHT22;8766;51.480;6.872;2023-03-23T03:25:10;13.50;68.30
17296;DHT22;8766;51.480;6.872;2023-03-23T03:27:40;13.50;68.20
17296;DHT22;8766;51.480;6.872;2023-03-23T03:30:10;13.60;68.30
17296;DHT22;8766;51.480;6.872;2023-03-23T03:32:41;13.60;68.20
17296;DHT22;8766;51.480;6.872;2023-03-23T03:35:09;13.60;68.20
17296;DHT22;8766;51.480;6.872;2023-03-23T03:37:38;13.60;68.20
17296;DHT22;8766;51.480;6.872;2023-03-23T03:40:07;13.60;68.20
17296;DHT22;8766;51.480;6.872;2023-03-23T03:42:37;13.60;68.30
17296;DHT22;8766;51.480;6.872;2023-03-23T03:45:05;13.50;68.20
17296;DHT22;8766;51.480;6.872;2023-03-23T03:47:32;13.50;68.30
17296;DHT22;8766;51.480;6.872;2023-03-23T03:50:00;13.50;68.40
17296;DHT22;8766;51.480;6.872;2023-03-23T03:52:27;13.50;68.40
17296;DHT22;8766;51.480;6.872;2023-03-23T03:54:55;13.50;68.40
17296;DHT22;8766;51.480;6.872;2023-03-23T03:57:22;13.50;68.40
17296;DHT22;8766;51.480;6.872;2023-03-23T03:59:50;13.50;68.40
17296;DHT22;8766;51.480;6.872;2023-03-23T04:02:18;13.50;68.40
17296;DHT22;8766;51.480;6.872;2023-03-23T04:04:46;13.50;68.40
17296;DHT22;8766;51.480;6.872;2023-03-23T04:07:13;13.50;68.40
17296;DHT22;8766;51.480;6.872;2023-03-23T04:09:43;13.50;68.40
17296;DHT22;8766;51.480;6.872;2023-03-23T04:12:13;13.50;68.40
17296;DHT22;8766;51.480;6.872;2023-03-23T04:14:40;13.50;68.40
17296;DHT22;8766;51.480;6.872;2023-03-23T04:17:07;13.60;68.40
17296;DHT22;8766;51.480;6.872;2023-03-23T04:19:37;13.60;68.40
17296;DHT22;8766;51.480;6.872;2023-03-23T04:22:04;13.60;68.30
17296;DHT22;8766;51.480;6.872;2023-03-23T04:24:32;13.60;68.30
17296;DHT22;8766;51.480;6.872;2023-03-23T04:27:01;13.60;68.30
17296;DHT22;8766;51.480;6.872;2023-03-23T04:29:30;13.60;68.30
17296;DHT22;8766;51.480;6.872;2023-03-23T04:31:59;13.60;68.30
17296;DHT22;8766;51.480;6.872;2023-03-23T04:34:27;13.60;68.30
17296;DHT22;8766;51.480;6.872;2023-03-23T04:36:59;13.60;68.30
17296;DHT22;8766;51.480;6.872;2023-03-23T04:39:26;13.60;68.30
17296;DHT22;8766;51.480;6.872;2023-03-23T04:41:54;13.60;68.30
17296;DHT22;8766;51.480;6.872;2023-03-23T04:44:21;13.60;68.30
17296;DHT22;8766;51.480;6.872;2023-03-23T04:46:49;13.70;68.30
17296;DHT22;8766;51.480;6.872;2023-03-23T04:49:19;13.70;68.30
17296;DHT22;8766;51.480;6.872;2023-03-23T04:51:47;13.60;68.30
17296;DHT22;8766;51.480;6.872;2023-03-23T04:54:16;13.60;68.20
17296;DHT22;8766;51.480;6.872;2023-03-23T04:56:43;13.70;68.30
17296;DHT22;8766;51.480;6.872;2023-03-23T04:59:10;13.70;68.30
17296;DHT22;8766;51.480;6.872;2023-03-23T05:01:39;13.70;68.30
17296;DHT22;8766;51.480;6.872;2023-03-23T05:04:12;13.70;68.30
17296;DHT22;8766;51.480;6.872;2023-03-23T05:06:42;13.70;68.30
17296;DHT22;8766;51.480;6.872;2023-03-23T05:09:10;13.70;68.20
17296;DHT22;8766;51.480;6.872;2023-03-23T05:11:37;13.70;68.30
17296;DHT22;8766;51.480;6.872;2023-03-23T05:14:04;13.70;68.20
17296;DHT22;8766;51.480;6.872;2023-03-23T05:16:31;13.70;68.20
17296;DHT22;8766;51.480;6.872;2023-03-23T05:18:58;13.70;68.20
17296;DHT22;8766;51.480;6.872;2023-03-23T05:21:26;13.70;68.20
17296;DHT22;8766;51.480;6.872;2023-03-23T05:23:53;13.70;68.30
17296;DHT22;8766;51.480;6.872;2023-03-23T05:26:21;13.70;68.30
17296;DHT22;8766;51.480;6.872;2023-03-23T05:28:49;13.70;68.30
17296;DHT22;8766;51.480;6.872;2023-03-23T05:31:18;13.70;68.30
17296;DHT22;8766;51.480;6.872;2023-03-23T05:33:45;13.70;68.30
17296;DHT22;8766;51.480;6.872;2023-03-23T05:36:12;13.70;68.20
17296;DHT22;8766;51.480;6.872;2023-03-23T05:38:41;13.70;68.20
17296;DHT22;8766;51.480;6.872;2023-03-23T05:41:10;13.70;68.20
17296;DHT22;8766;51.480;6.872;2023-03-23T05:43:37;13.70;68.20
17296;DHT22;8766;51.480;6.872;2023-03-23T05:46:04;13.70;68.20
17296;DHT22;8766;51.480;6.872;2023-03-23T05:48:32;13.70;68.20
17296;DHT22;8766;51.480;6.872;2023-03-23T05:50:59;13.70;68.20
17296;DHT22;8766;51.480;6.872;2023-03-23T05:53:26;13.70;68.20
17296;DHT22;8766;51.480;6.872;2023-03-23T05:55:59;13.70;68.20
17296;DHT22;8766;51.480;6.872;2023-03-23T05:58:26;13.70;68.20
17296;DHT22;8766;51.480;6.872;2023-03-23T06:00:53;13.70;68.20
17296;DHT22;8766;51.480;6.872;2023-03-23T06:03:20;13.70;68.20
17296;DHT22;8766;51.480;6.872;2023-03-23T06:05:48;13.70;68.20
17296;DHT22;8766;51.480;6.872;2023-03-23T06:08:15;13.80;68.30
17296;DHT22;8766;51.480;6.872;2023-03-23T06:10:43;13.80;68.30
17296;DHT22;8766;51.480;6.872;2023-03-23T06:13:11;13.80;68.20
17296;DHT22;8766;51.480;6.872;2023-03-23T06:15:38;13.80;68.30
17296;DHT22;8766;51.480;6.872;2023-03-23T06:18:05;13.70;68.20
17296;DHT22;8766;51.480;6.872;2023-03-23T06:20:33;13.80;68.20
17296;DHT22;8766;51.480;6.872;2023-03-23T06:23:00;13.80;68.20
17296;DHT22;8766;51.480;6.872;2023-03-23T06:25:28;13.80;68.20
17296;DHT22;8766;51.480;6.872;2023-03-23T06:27:55;13.80;68.20
17296;DHT22;8766;51.480;6.872;2023-03-23T06:30:24;13.80;68.20
17296;DHT22;8766;51.480;6.872;2023-03-23T06:32:52;13.80;68.20
17296;DHT22;8766;51.480;6.872;2023-03-23T06:35:19;13.80;68.10
17296;DHT22;8766;51.480;6.872;2023-03-23T06:37:46;13.80;68.00
17296;DHT22;8766;51.480;6.872;2023-03-23T06:40:13;13.80;68.00
17296;DHT22;8766;51.480;6.872;2023-03-23T06:42:44;13.90;68.00
17296;DHT22;8766;51.480;6.872;2023-03-23T06:45:11;13.90;67.90
17296;DHT22;8766;51.480;6.872;2023-03-23T06:47:39;13.90;67.80
17296;DHT22;8766;51.480;6.872;2023-03-23T06:50:07;14.00;67.80
17296;DHT22;8766;51.480;6.872;2023-03-23T06:52:34;13.90;67.80
17296;DHT22;8766;51.480;6.872;2023-03-23T06:55:01;14.00;67.80
17296;DHT22;8766;51.480;6.872;2023-03-23T06:57:28;14.00;67.70
17296;DHT22;8766;51.480;6.872;2023-03-23T06:59:55;14.00;67.60
17296;DHT22;8766;51.480;6.872;2023-03-23T07:02:22;14.10;67.60
17296;DHT22;8766;51.480;6.872;2023-03-23T07:04:51;14.10;67.50
17296;DHT22;8766;51.480;6.872;2023-03-23T07:07:19;14.10;67.40
17296;DHT22;8766;51.480;6.872;2023-03-23T07:09:46;14.20;67.40
17296;DHT22;8766;51.480;6.872;2023-03-23T07:12:13;14.20;67.30
17296;DHT22;8766;51.480;6.872;2023-03-23T07:14:41;14.20;67.30
17296;DHT22;8766;51.480;6.872;2023-03-23T07:17:08;14.20;67.30
17296;DHT22;8766;51.480;6.872;2023-03-23T07:19:35;14.20;67.40
17296;DHT22;8766;51.480;6.872;2023-03-23T07:22:06;14.20;67.50
17296;DHT22;8766;51.480;6.872;2023-03-23T07:24:34;14.20;67.50
17296;DHT22;8766;51.480;6.872;2023-03-23T07:27:01;14.20;67.50
17296;DHT22;8766;51.480;6.872;2023-03-23T07:29:28;14.20;67.50
17296;DHT22;8766;51.480;6.872;2023-03-23T07:31:55;14.20;67.50
17296;DHT22;8766;51.480;6.872;2023-03-23T07:34:22;14.20;67.50
17296;DHT22;8766;51.480;6.872;2023-03-23T07:36:49;14.20;67.50
17296;DHT22;8766;51.480;6.872;2023-03-23T07:39:18;14.20;67.50
17296;DHT22;8766;51.480;6.872;2023-03-23T07:41:45;14.20;67.40
17296;DHT22;8766;51.480;6.872;2023-03-23T07:44:12;14.20;67.40
17296;DHT22;8766;51.480;6.872;2023-03-23T07:46:39;14.20;67.40
17296;DHT22;8766;51.480;6.872;2023-03-23T07:49:07;14.20;67.40
17296;DHT22;8766;51.480;6.872;2023-03-23T07:51:34;14.20;67.40
17296;DHT22;8766;51.480;6.872;2023-03-23T07:54:04;14.20;67.40
17296;DHT22;8766;51.480;6.872;2023-03-23T07:56:34;14.20;67.40
17296;DHT22;8766;51.480;6.872;2023-03-23T07:59:02;14.30;67.40
17296;DHT22;8766;51.480;6.872;2023-03-23T08:01:30;14.20;67.30
17296;DHT22;8766;51.480;6.872;2023-03-23T08:03:57;14.20;67.40
17296;DHT22;8766;51.480;6.872;2023-03-23T08:06:26;14.20;67.30
17296;DHT22;8766;51.480;6.872;2023-03-23T08:08:58;14.30;67.40
17296;DHT22;8766;51.480;6.872;2023-03-23T08:11:41;14.30;67.30
17296;DHT22;8766;51.480;6.872;2023-03-23T08:14:09;14.30;67.20
17296;DHT22;8766;51.480;6.872;2023-03-23T08:16:37;14.40;67.20
17296;DHT22;8766;51.480;6.872;2023-03-23T08:19:04;14.40;66.90
17296;DHT22;8766;51.480;6.872;2023-03-23T08:21:31;14.50;66.80
17296;DHT22;8766;51.480;6.872;2023-03-23T08:23:58;14.50;66.70
17296;DHT22;8766;51.480;6.872;2023-03-23T08:26:25;14.60;66.60
17296;DHT22;8766;51.480;6.872;2023-03-23T08:28:54;14.60;66.60
17296;DHT22;8766;51.480;6.872;2023-03-23T08:31:21;14.60;66.50
17296;DHT22;8766;51.480;6.872;2023-03-23T08:33:48;14.70;66.40
17296;DHT22;8766;51.480;6.872;2023-03-23T08:36:15;14.70;66.40
17296;DHT22;8766;51.480;6.872;2023-03-23T08:38:41;14.70;66.40
17296;DHT22;8766;51.480;6.872;2023-03-23T08:41:09;14.70;66.30
17296;DHT22;8766;51.480;6.872;2023-03-23T08:43:36;14.80;66.30
17296;DHT22;8766;51.480;6.872;2023-03-23T08:46:06;14.80;66.10
17296;DHT22;8766;51.480;6.872;2023-03-23T08:48:35;14.90;66.00
17296;DHT22;8766;51.480;6.872;2023-03-23T08:51:04;14.90;65.90
17296;DHT22;8766;51.480;6.872;2023-03-23T08:53:32;15.00;65.80
17296;DHT22;8766;51.480;6.872;2023-03-23T08:56:03;15.00;65.90
17296;DHT22;8766;51.480;6.872;2023-03-23T08:58:30;15.00;65.90
17296;DHT22;8766;51.480;6.872;2023-03-23T09:00:58;15.00;66.00
17296;DHT22;8766;51.480;6.872;2023-03-23T09:03:27;14.90;66.00
17296;DHT22;8766;51.480;6.872;2023-03-23T09:05:57;14.90;66.10
17296;DHT22;8766;51.480;6.872;2023-03-23T09:08:25;14.80;66.20
17296;DHT22;8766;51.480;6.872;2023-03-23T09:10:51;14.80;66.40
17296;DHT22;8766;51.480;6.872;2023-03-23T09:13:18;14.70;66.40
17296;DHT22;8766;51.480;6.872;2023-03-23T09:15:45;14.70;66.50
17296;DHT22;8766;51.480;6.872;2023-03-23T09:18:13;14.70;66.70
17296;DHT22;8766;51.480;6.872;2023-03-23T09:20:42;14.60;66.80
17296;DHT22;8766;51.480;6.872;2023-03-23T09:23:10;14.60;66.90
17296;DHT22;8766;51.480;6.872;2023-03-23T09:25:39;14.50;66.90
17296;DHT22;8766;51.480;6.872;2023-03-23T09:28:06;14.50;66.90
17296;DHT22;8766;51.480;6.872;2023-03-23T09:30:35;14.50;66.90
17296;DHT22;8766;51.480;6.872;2023-03-23T09:33:04;14.50;66.80
17296;DHT22;8766;51.480;6.872;2023-03-23T09:35:32;14.60;66.80
17296;DHT22;8766;51.480;6.872;2023-03-23T09:38:02;14.60;66.80
17296;DHT22;8766;51.480;6.872;2023-03-23T09:40:35;14.60;66.80
17296;DHT22;8766;51.480;6.872;2023-03-23T09:43:22;14.50;66.80
17296;DHT22;8766;51.480;6.872;2023-03-23T09:45:58;14.40;67.00
17296;DHT22;8766;51.480;6.872;2023-03-23T09:48:37;14.20;67.50
17296;DHT22;8766;51.480;6.872;2023-03-23T09:51:11;13.90;68.50
17296;DHT22;8766;51.480;6.872;2023-03-23T09:53:43;13.80;68.30
17296;DHT22;8766;51.480;6.872;2023-03-23T09:56:13;13.70;68.70
17296;DHT22;8766;51.480;6.872;2023-03-23T09:58:46;13.60;68.80
17296;DHT22;8766;51.480;6.872;2023-03-23T10:01:21;13.60;68.80
17296;DHT22;8766;51.480;6.872;2023-03-23T10:04:01;13.70;68.60
17296;DHT22;8766;51.480;6.872;2023-03-23T10:06:29;13.70;68.50
17296;DHT22;8766;51.480;6.872;2023-03-23T10:09:01;13.80;68.40
17296;DHT22;8766;51.480;6.872;2023-03-23T10:11:38;13.80;68.30
17296;DHT22;8766;51.480;6.872;2023-03-23T10:14:18;13.90;68.10
17296;DHT22;8766;51.480;6.872;2023-03-23T10:16:55;13.90;68.00
17296;DHT22;8766;51.480;6.872;2023-03-23T10:19:29;13.80;68.10
17296;DHT22;8766;51.480;6.872;2023-03-23T10:22:03;13.80;68.20
17296;DHT22;8766;51.480;6.872;2023-03-23T10:24:35;13.70;68.20
17296;DHT22;8766;51.480;6.872;2023-03-23T10:27:11;13.80;68.30
17296;DHT22;8766;51.480;6.872;2023-03-23T10:29:43;13.70;68.30
17296;DHT22;8766;51.480;6.872;2023-03-23T10:32:15;13.70;68.50
17296;DHT22;8766;51.480;6.872;2023-03-23T10:34:47;13.70;68.50
17296;DHT22;8766;51.480;6.872;2023-03-23T10:37:18;13.70;68.40
17296;DHT22;8766;51.480;6.872;2023-03-23T10:39:51;13.70;68.30
17296;DHT22;8766;51.480;6.872;2023-03-23T10:42:28;13.70;68.30
17296;DHT22;8766;51.480;6.872;2023-03-23T10:45:00;13.70;68.30
17296;DHT22;8766;51.480;6.872;2023-03-23T10:47:37;13.80;68.30
17296;DHT22;8766;51.480;6.872;2023-03-23T10:50:06;13.80;68.20
17296;DHT22;8766;51.480;6.872;2023-03-23T10:52:41;13.90;68.10
17296;DHT22;8766;51.480;6.872;2023-03-23T10:55:11;14.00;67.90
17296;DHT22;8766;51.480;6.872;2023-03-23T10:57:41;14.00;67.70
17296;DHT22;8766;51.480;6.872;2023-03-23T11:00:19;14.00;67.80
17296;DHT22;8766;51.480;6.872;2023-03-23T11:02:57;13.90;68.00
17296;DHT22;8766;51.480;6.872;2023-03-23T11:05:33;13.80;68.20
17296;DHT22;8766;51.480;6.872;2023-03-23T11:08:01;13.70;68.30
17296;DHT22;8766;51.480;6.872;2023-03-23T11:10:36;13.70;68.40
17296;DHT22;8766;51.480;6.872;2023-03-23T11:13:04;13.60;68.50
17296;DHT22;8766;51.480;6.872;2023-03-23T11:15:37;13.70;68.60
17296;DHT22;8766;51.480;6.872;2023-03-23T11:18:06;13.70;68.60
17296;DHT22;8766;51.480;6.872;2023-03-23T11:20:37;13.70;68.60
17296;DHT22;8766;51.480;6.872;2023-03-23T11:23:15;13.70;68.60
17296;DHT22;8766;51.480;6.872;2023-03-23T11:25:58;13.60;68.70
17296;DHT22;8766;51.480;6.872;2023-03-23T11:28:30;13.70;68.60
17296;DHT22;8766;51.480;6.872;2023-03-23T11:31:00;13.80;68.40
17296;DHT22;8766;51.480;6.872;2023-03-23T11:33:34;13.80;68.20
17296;DHT22;8766;51.480;6.872;2023-03-23T11:36:02;13.90;68.20
17296;DHT22;8766;51.480;6.872;2023-03-23T11:38:29;13.80;68.10
17296;DHT22;8766;51.480;6.872;2023-03-23T11:40:59;13.80;68.10
17296;DHT22;8766;51.480;6.872;2023-03-23T11:43:27;13.90;68.20
17296;DHT22;8766;51.480;6.872;2023-03-23T11:46:02;13.90;68.10
17296;DHT22;8766;51.480;6.872;2023-03-23T11:48:35;13.90;68.10
17296;DHT22;8766;51.480;6.872;2023-03-23T11:51:11;14.00;68.10
17296;DHT22;8766;51.480;6.872;2023-03-23T11:53:46;14.10;67.90
17296;DHT22;8766;51.480;6.872;2023-03-23T11:56:22;14.20;67.60
17296;DHT22;8766;51.480;6.872;2023-03-23T11:58:52;14.30;67.30
17296;DHT22;8766;51.480;6.872;2023-03-23T12:01:29;14.40;67.10
17296;DHT22;8766;51.480;6.872;2023-03-23T12:10:10;14.60;66.80
17296;DHT22;8766;51.480;6.872;2023-03-23T12:12:44;14.60;66.70
17296;DHT22;8766;51.480;6.872;2023-03-23T12:15:22;14.50;66.80
17296;DHT22;8766;51.480;6.872;2023-03-23T12:17:58;14.40;67.20
17296;DHT22;8766;51.480;6.872;2023-03-23T12:20:37;14.30;67.40
17296;DHT22;8766;51.480;6.872;2023-03-23T12:23:14;14.30;67.60
17296;DHT22;8766;51.480;6.872;2023-03-23T12:26:09;14.30;67.60
17296;DHT22;8766;51.480;6.872;2023-03-23T12:32:04;14.20;67.80
17296;DHT22;8766;51.480;6.872;2023-03-23T12:34:40;14.10;67.80
17296;DHT22;8766;51.480;6.872;2023-03-23T12:42:55;14.40;67.60
17296;DHT22;8766;51.480;6.872;2023-03-23T12:48:34;14.70;66.80
17296;DHT22;8766;51.480;6.872;2023-03-23T12:51:10;14.80;66.50
17296;DHT22;8766;51.480;6.872;2023-03-23T12:53:44;14.90;66.30
17296;DHT22;8766;51.480;6.872;2023-03-23T12:56:17;15.00;66.20
17296;DHT22;8766;51.480;6.872;2023-03-23T12:58:49;15.00;66.10
17296;DHT22;8766;51.480;6.872;2023-03-23T13:01:19;15.00;66.20
17296;DHT22;8766;51.480;6.872;2023-03-23T13:03:54;15.00;66.20
17296;DHT22;8766;51.480;6.872;2023-03-23T13:06:29;15.10;66.20
17296;DHT22;8766;51.480;6.872;2023-03-23T13:09:02;15.20;66.10
17296;DHT22;8766;51.480;6.872;2023-03-23T13:11:33;15.30;65.90
17296;DHT22;8766;51.480;6.872;2023-03-23T13:14:15;15.30;65.80
17296;DHT22;8766;51.480;6.872;2023-03-23T13:16:50;15.30;65.80
17296;DHT22;8766;51.480;6.872;2023-03-23T13:19:27;15.40;65.80
17296;DHT22;8766;51.480;6.872;2023-03-23T13:22:02;15.40;65.70
17296;DHT22;8766;51.480;6.872;2023-03-23T13:24:35;15.50;65.50
17296;DHT22;8766;51.480;6.872;2023-03-23T13:27:04;15.60;65.50
17296;DHT22;8766;51.480;6.872;2023-03-23T13:29:32;15.50;65.50
17296;DHT22;8766;51.480;6.872;2023-03-23T13:32:11;15.40;65.70
17296;DHT22;8766;51.480;6.872;2023-03-23T13:34:41;15.50;65.80
17296;DHT22;8766;51.480;6.872;2023-03-23T13:37:20;15.50;65.80
17296;DHT22;8766;51.480;6.872;2023-03-23T13:39:51;15.50;65.90
17296;DHT22;8766;51.480;6.872;2023-03-23T13:42:22;15.50;66.00
17296;DHT22;8766;51.480;6.872;2023-03-23T13:45:07;15.50;65.90
17296;DHT22;8766;51.480;6.872;2023-03-23T13:47:38;15.50;65.90
17296;DHT22;8766;51.480;6.872;2023-03-23T13:50:23;15.50;66.00
17296;DHT22;8766;51.480;6.872;2023-03-23T13:52:53;15.50;66.10
17296;DHT22;8766;51.480;6.872;2023-03-23T13:55:30;15.50;66.00
17296;DHT22;8766;51.480;6.872;2023-03-23T13:58:09;15.60;65.90
17296;DHT22;8766;51.480;6.872;2023-03-23T14:00:45;15.70;65.70
17296;DHT22;8766;51.480;6.872;2023-03-23T14:03:15;15.70;65.60
17296;DHT22;8766;51.480;6.872;2023-03-23T14:05:45;15.80;65.60
17296;DHT22;8766;51.480;6.872;2023-03-23T14:08:22;15.80;65.50
17296;DHT22;8766;51.480;6.872;2023-03-23T14:10:52;15.90;65.50
17296;DHT22;8766;51.480;6.872;2023-03-23T14:13:24;15.90;65.50
17296;DHT22;8766;51.480;6.872;2023-03-23T14:16:00;15.90;65.50
17296;DHT22;8766;51.480;6.872;2023-03-23T14:18:32;15.80;65.50
17296;DHT22;8766;51.480;6.872;2023-03-23T14:21:03;15.90;65.60
17296;DHT22;8766;51.480;6.872;2023-03-23T14:23:32;15.90;65.50
17296;DHT22;8766;51.480;6.872;2023-03-23T14:26:00;15.90;65.50
17296;DHT22;8766;51.480;6.872;2023-03-23T14:28:37;15.90;65.60
17296;DHT22;8766;51.480;6.872;2023-03-23T14:31:05;15.90;65.50
17296;DHT22;8766;51.480;6.872;2023-03-23T14:33:38;16.00;65.50
17296;DHT22;8766;51.480;6.872;2023-03-23T14:36:09;16.00;65.50
17296;DHT22;8766;51.480;6.872;2023-03-23T14:38:36;16.00;65.60
17296;DHT22;8766;51.480;6.872;2023-03-23T14:41:05;16.00;65.50
17296;DHT22;8766;51.480;6.872;2023-03-23T14:43:34;16.00;65.50
17296;DHT22;8766;51.480;6.872;2023-03-23T14:46:06;16.10;65.40
17296;DHT22;8766;51.480;6.872;2023-03-23T14:48:34;16.10;65.40
17296;DHT22;8766;51.480;6.872;2023-03-23T14:51:03;16.10;65.50
17296;DHT22;8766;51.480;6.872;2023-03-23T14:53:36;16.10;65.60
17296;DHT22;8766;51.480;6.872;2023-03-23T14:56:15;16.00;65.70
17296;DHT22;8766;51.480;6.872;2023-03-23T14:58:47;15.90;65.80
17296;DHT22;8766;51.480;6.872;2023-03-23T15:01:19;15.90;66.00
17296;DHT22;8766;51.480;6.872;2023-03-23T15:03:56;15.90;65.90
17296;DHT22;8766;51.480;6.872;2023-03-23T15:06:26;16.00;65.80
17296;DHT22;8766;51.480;6.872;2023-03-23T15:08:59;16.00;65.70
17296;DHT22;8766;51.480;6.872;2023-03-23T15:11:29;16.10;65.60
17296;DHT22;8766;51.480;6.872;2023-03-23T15:14:02;16.10;65.50
17296;DHT22;8766;51.480;6.872;2023-03-23T15:16:31;16.10;65.50
17296;DHT22;8766;51.480;6.872;2023-03-23T15:19:00;16.10;65.70
17296;DHT22;8766;51.480;6.872;2023-03-23T15:21:30;16.00;65.80
17296;DHT22;8766;51.480;6.872;2023-03-23T15:23:58;16.00;65.90
17296;DHT22;8766;51.480;6.872;2023-03-23T15:26:42;16.00;66.00
17296;DHT22;8766;51.480;6.872;2023-03-23T15:29:14;15.90;66.20
17296;DHT22;8766;51.480;6.872;2023-03-23T15:31:43;15.90;66.30
17296;DHT22;8766;51.480;6.872;2023-03-23T15:34:25;15.90;66.30
17296;DHT22;8766;51.480;6.872;2023-03-23T15:36:56;15.90;66.30
17296;DHT22;8766;51.480;6.872;2023-03-23T15:39:25;15.90;66.30
17296;DHT22;8766;51.480;6.872;2023-03-23T15:41:53;15.80;66.40
17296;DHT22;8766;51.480;6.872;2023-03-23T15:44:32;15.80;66.40
17296;DHT22;8766;51.480;6.872;2023-03-23T15:47:14;15.80;66.50
17296;DHT22;8766;51.480;6.872;2023-03-23T15:49:43;15.80;66.60
17296;DHT22;8766;51.480;6.872;2023-03-23T15:52:12;15.70;66.50
17296;DHT22;8766;51.480;6.872;2023-03-23T15:54:47;15.70;66.60
17296;DHT22;8766;51.480;6.872;2023-03-23T15:57:14;15.70;66.60
17296;DHT22;8766;51.480;6.872;2023-03-23T15:59:41;15.70;66.60
17296;DHT22;8766;51.480;6.872;2023-03-23T16:02:17;15.70;66.60
17296;DHT22;8766;51.480;6.872;2023-03-23T16:04:45;15.70;66.70
17296;DHT22;8766;51.480;6.872;2023-03-23T16:07:12;15.70;66.70
17296;DHT22;8766;51.480;6.872;2023-03-23T16:09:39;15.60;66.80
17296;DHT22;8766;51.480;6.872;2023-03-23T16:12:11;15.60;66.90
17296;DHT22;8766;51.480;6.872;2023-03-23T16:14:39;15.60;67.00
17296;DHT22;8766;51.480;6.872;2023-03-23T16:17:08;15.50;67.00
17296;DHT22;8766;51.480;6.872;2023-03-23T16:19:36;15.50;67.10
17296;DHT22;8766;51.480;6.872;2023-03-23T16:22:03;15.50;67.20
17296;DHT22;8766;51.480;6.872;2023-03-23T16:24:29;15.50;67.30